Schillplate — ZDJJ8 — position and weather

sailwx.info

Track history (hours):
 
Tides and Currents Weather Stations Pressure Air Temp Water Temp Dewpoint Dewpoint Depression Visibility Wind Speed Wind Dir Waves Ship Positions

Schillplate

Last reported at 2015-May-05 02:29 UTC. Time now 2015-May-06 08:26 UTC.
Position N 41°08' W 008°46'.

Length 86 m; draft 5.5 m.

Type: Cargo ship. MMSI: 236111603.

Date/timePositionNaut miles runAvg speedWind from/ knotsBaromVisibWave heightAir tempDewpointWater temp
2015-May-05 02:29N 41°08' W 008°46'1 1.3
2015-May-05 01:31N 41°07' W 008°47'0 0.4
2015-May-05 00:33N 41°07' W 008°47'0 0.2
2015-May-04 23:06N 41°07' W 008°47'0 0.1
2015-May-04 22:32N 41°07' W 008°47'0 0.2
2015-May-04 21:33N 41°07' W 008°47'0 0.4
2015-May-04 20:33N 41°08' W 008°47'0 0.1
2015-May-04 19:33N 41°08' W 008°47'1 0.9
2015-May-04 18:34N 41°09' W 008°46'0 0.1
2015-May-04 17:34N 41°09' W 008°46'0 0.1
2015-May-04 16:33N 41°09' W 008°46'  
2015-Apr-29 02:33N 47°21' W 003°32'3411.2
2015-Apr-28 23:33N 47°35' W 004°17'2211.1
2015-Apr-28 21:33N 47°46' W 004°46'1010.4
2015-Apr-28 20:33N 47°51' W 004°59'1110.6
2015-Apr-28 19:33N 47°58' W 005°11'1110.8
2015-Apr-28 18:33N 48°06' W 005°23'1111.0
2015-Apr-28 17:33N 48°13' W 005°35'139 9.9
2015-Apr-28 03:32N 50°32' W 005°38'10 9.9
2015-Apr-28 02:33N 50°38' W 005°26'9 9.6
2015-Apr-28 01:34N 50°44' W 005°14'9410.0
2015-Apr-27 16:09N 51°27' W 003°01'712.5
2015-Apr-27 15:33N 51°29' W 002°50'1110.9
2015-Apr-27 14:34N 51°38' W 002°39'8 7.6
2015-Apr-27 13:28N 51°43' W 002°29'0 0.1
2015-Apr-27 11:31N 51°43' W 002°29'0 0.0
2015-Apr-27 05:10N 51°43' W 002°29'0 0.0
2015-Apr-27 04:10N 51°43' W 002°29'0 0.0
2015-Apr-25 22:04N 51°43' W 002°29'0 0.0
2015-Apr-25 19:31N 51°43' W 002°29'0 0.0
2015-Apr-25 18:25N 51°43' W 002°29'0 0.0
2015-Apr-25 17:31N 51°43' W 002°29'0 0.0
2015-Apr-25 09:31N 51°43' W 002°29'0 0.0
2015-Apr-25 07:16N 51°43' W 002°29'  
Track history (hours):
 
Tides and Currents Weather Stations Pressure Air Temp Water Temp Dewpoint Dewpoint Depression Visibility Wind Speed Wind Dir Waves Ship Positions

Schillplate

Last reported at 2015-May-05 02:29 UTC. Time now 2015-May-06 08:26 UTC.
Position N 41°08' W 008°46'.

Length 86 m; draft 5.5 m.

Type: Cargo ship. MMSI: 236111603.

Date/timePositionNaut miles runAvg speedWind from/ knotsBaromVisibWave heightAir tempDewpointWater temp
2015-May-05 02:29N 41°08' W 008°46'1 1.3
2015-May-05 01:31N 41°07' W 008°47'0 0.4
2015-May-05 00:33N 41°07' W 008°47'0 0.2
2015-May-04 23:06N 41°07' W 008°47'0 0.1
2015-May-04 22:32N 41°07' W 008°47'0 0.2
2015-May-04 21:33N 41°07' W 008°47'0 0.4
2015-May-04 20:33N 41°08' W 008°47'0 0.1
2015-May-04 19:33N 41°08' W 008°47'1 0.9
2015-May-04 18:34N 41°09' W 008°46'0 0.1
2015-May-04 17:34N 41°09' W 008°46'0 0.1
2015-May-04 16:33N 41°09' W 008°46'  
2015-Apr-29 02:33N 47°21' W 003°32'3411.2
2015-Apr-28 23:33N 47°35' W 004°17'2211.1
2015-Apr-28 21:33N 47°46' W 004°46'1010.4
2015-Apr-28 20:33N 47°51' W 004°59'1110.6
2015-Apr-28 19:33N 47°58' W 005°11'1110.8
2015-Apr-28 18:33N 48°06' W 005°23'1111.0
2015-Apr-28 17:33N 48°13' W 005°35'139 9.9
2015-Apr-28 03:32N 50°32' W 005°38'10 9.9
2015-Apr-28 02:33N 50°38' W 005°26'9 9.6
2015-Apr-28 01:34N 50°44' W 005°14'9410.0
2015-Apr-27 16:09N 51°27' W 003°01'712.5
2015-Apr-27 15:33N 51°29' W 002°50'1110.9
2015-Apr-27 14:34N 51°38' W 002°39'8 7.6
2015-Apr-27 13:28N 51°43' W 002°29'0 0.1
2015-Apr-27 11:31N 51°43' W 002°29'0 0.0
2015-Apr-27 05:10N 51°43' W 002°29'0 0.0
2015-Apr-27 04:10N 51°43' W 002°29'0 0.0
2015-Apr-25 22:04N 51°43' W 002°29'0 0.0
2015-Apr-25 19:31N 51°43' W 002°29'0 0.0
2015-Apr-25 18:25N 51°43' W 002°29'0 0.0
2015-Apr-25 17:31N 51°43' W 002°29'0 0.0
2015-Apr-25 09:31N 51°43' W 002°29'0 0.0
2015-Apr-25 07:16N 51°43' W 002°29'  

Dump ship's entire track history